Time;durP1;ratioP1;P1;durP2;ratioP2;P2;SDS_P1;SDS_P2;PMS_P1;PMS_P2;Temp;Humidity;BMP_temperature;BMP_pressure;BME280_temperature;BME280_humidity;BME280_pressure;Samples;Min_cycle;Max_cycle;Signal;HPM_P1;HPM_P2
2021/12/22 00:00:30;;;;;;;55.45;27.00;;;-2.80;99.90;;;;;;5089399;28;20079;-86
2021/12/22 00:02:57;;;;;;;50.03;26.35;;;-2.80;99.90;;;;;;5090774;28;20106;-85
2021/12/22 00:05:25;;;;;;;52.85;26.05;;;-2.90;99.90;;;;;;5090070;28;20104;-84
2021/12/22 00:07:51;;;;;;;54.28;27.02;;;-2.90;99.90;;;;;;5073997;28;20051;-84
2021/12/22 00:10:18;;;;;;;59.00;30.55;;;-2.90;99.90;;;;;;5074195;28;20047;-84
2021/12/22 00:12:44;;;;;;;64.03;31.67;;;-1.60;99.90;;;;;;5072708;28;20060;-86
2021/12/22 00:15:10;;;;;;;57.65;30.80;;;-2.90;99.90;;;;;;5056652;28;20387;-85
2021/12/22 00:17:35;;;;;;;67.00;32.28;;;-2.90;99.90;;;;;;5072786;28;20127;-86
2021/12/22 00:20:02;;;;;;;57.00;30.25;;;-2.30;99.90;;;;;;5073021;28;20436;-86
2021/12/22 00:22:27;;;;;;;53.47;28.27;;;-2.00;99.90;;;;;;5089511;28;20056;-87
2021/12/22 00:24:53;;;;;;;54.83;28.92;;;-2.90;99.90;;;;;;5089741;28;20044;-85
2021/12/22 00:27:19;;;;;;;57.95;30.05;;;-1.10;99.90;;;;;;5089664;28;20164;-86
2021/12/22 00:29:48;;;;;;;54.58;27.58;;;-3.00;99.90;;;;;;5088544;28;20063;-86
2021/12/22 00:32:16;;;;;;;54.95;27.77;;;-3.00;99.90;;;;;;5089700;28;20048;-86
2021/12/22 00:34:50;;;;;;;51.33;26.67;;;-3.00;99.90;;;;;;5089345;28;20074;-85
2021/12/22 00:37:27;;;;;;;45.97;26.58;;;-2.40;99.90;;;;;;5089982;28;20785;-86
2021/12/22 00:39:53;;;;;;;47.13;25.98;;;-3.10;99.90;;;;;;5089671;28;20074;-86
2021/12/22 00:42:19;;;;;;;54.83;27.52;;;-3.10;99.90;;;;;;5072861;28;20399;-86
2021/12/22 00:44:47;;;;;;;53.38;26.40;;;-3.20;99.90;;;;;;5072373;28;20063;-86
2021/12/22 00:47:13;;;;;;;45.50;24.60;;;-3.20;99.90;;;;;;5089430;28;20039;-85
2021/12/22 00:49:40;;;;;;;49.55;26.15;;;-3.20;99.90;;;;;;5076249;28;20051;-86
2021/12/22 00:52:06;;;;;;;54.25;27.77;;;-3.30;99.90;;;;;;5093589;28;20492;-86
2021/12/22 00:54:31;;;;;;;56.30;28.17;;;-3.30;99.90;;;;;;5092906;28;20047;-86
2021/12/22 00:57:03;;;;;;;48.17;25.27;;;-3.30;99.90;;;;;;5093846;28;20044;-85
2021/12/22 00:59:30;;;;;;;55.25;29.13;;;-3.30;99.90;;;;;;5097239;28;20052;-85
2021/12/22 01:01:55;;;;;;;53.58;28.30;;;-3.30;99.90;;;;;;5108928;28;20777;-86
2021/12/22 01:04:21;;;;;;;57.30;28.63;;;-3.20;99.90;;;;;;5090821;28;20044;-85
2021/12/22 01:06:46;;;;;;;41.83;25.48;;;-3.30;99.90;;;;;;5059257;28;20160;-86
2021/12/22 01:09:12;;;;;;;47.25;24.35;;;-2.20;99.90;;;;;;5092838;28;20052;-86
2021/12/22 01:11:38;;;;;;;50.10;25.95;;;-2.10;99.90;;;;;;5059045;28;20052;-86
2021/12/22 01:14:04;;;;;;;48.65;27.10;;;-3.30;99.90;;;;;;5093151;28;20169;-87
2021/12/22 01:16:29;;;;;;;46.03;25.33;;;-3.40;99.90;;;;;;5076454;28;20066;-84
2021/12/22 01:18:58;;;;;;;45.83;25.13;;;-3.40;99.90;;;;;;5075688;28;20101;-87
2021/12/22 01:21:35;;;;;;;47.97;24.83;;;-3.50;99.90;;;;;;5093104;28;20105;-86
2021/12/22 01:24:15;;;;;;;45.88;25.70;;;-3.50;99.90;;;;;;5092699;28;20044;-86
2021/12/22 01:26:46;;;;;;;53.00;26.15;;;-2.70;99.90;;;;;;5094498;28;20498;-86
2021/12/22 01:29:13;;;;;;;53.75;26.40;;;-3.50;99.90;;;;;;5092486;28;20055;-86
2021/12/22 01:31:40;;;;;;;47.40;24.95;;;-3.50;99.90;;;;;;5075380;28;20055;-86
2021/12/22 01:34:06;;;;;;;50.95;26.08;;;-3.60;99.90;;;;;;5076027;28;20122;-86
2021/12/22 01:36:32;;;;;;;44.50;24.55;;;-3.60;99.90;;;;;;5075758;28;20480;-86
2021/12/22 01:38:58;;;;;;;52.88;26.48;;;-3.60;99.90;;;;;;5092210;28;20105;-86
2021/12/22 01:41:23;;;;;;;53.78;27.20;;;-3.70;99.90;;;;;;5075742;28;20084;-87
2021/12/22 01:43:50;;;;;;;52.38;26.85;;;-2.60;99.90;;;;;;5091997;28;20113;-87
2021/12/22 01:49:15;;;;;;;56.17;27.85;;;-3.70;99.90;;;;;;5075314;28;20044;-86
2021/12/22 01:51:51;;;;;;;46.35;25.45;;;-3.70;99.90;;;;;;5075258;28;20062;-86
2021/12/22 01:54:19;;;;;;;50.63;25.65;;;-3.70;99.90;;;;;;5092609;28;20466;-87
2021/12/22 01:56:46;;;;;;;56.60;27.25;;;-3.70;99.90;;;;;;5091850;28;20568;-87
2021/12/22 01:59:12;;;;;;;46.72;25.92;;;-2.70;99.90;;;;;;5074567;28;20480;-87
2021/12/22 02:01:37;;;;;;;49.95;26.38;;;-3.60;99.90;;;;;;5075262;28;20139;-85
2021/12/22 02:04:04;;;;;;;50.47;24.95;;;-3.70;99.90;;;;;;5074892;28;20047;-87
2021/12/22 02:06:30;;;;;;;53.47;25.35;;;-3.70;99.90;;;;;;5092144;28;20056;-87
2021/12/22 02:08:58;;;;;;;53.92;25.45;;;-3.80;99.90;;;;;;5075115;28;20055;-87
2021/12/22 02:11:23;;;;;;;50.03;26.25;;;-3.80;99.90;;;;;;5075724;28;20067;-87
2021/12/22 02:13:56;;;;;;;46.80;24.52;;;-3.80;99.90;;;;;;5058336;28;20056;-87
2021/12/22 02:16:27;;;;;;;45.17;24.38;;;-2.30;99.90;;;;;;5091946;28;20098;-87
2021/12/22 02:18:53;;;;;;;53.63;25.63;;;-3.80;99.90;;;;;;5075473;28;20117;-87
2021/12/22 02:21:21;;;;;;;45.33;25.10;;;-3.80;99.90;;;;;;5075365;28;20052;-87
2021/12/22 02:23:46;;;;;;;52.00;24.20;;;-2.80;99.90;;;;;;5091487;28;20184;-87
2021/12/22 02:29:04;;;;;;;41.97;23.55;;;-3.80;99.90;;;;;;5076305;28;20056;-86
2021/12/22 02:31:34;;;;;;;42.60;23.80;;;-3.80;99.90;;;;;;5091437;28;20434;-86
2021/12/22 02:33:59;;;;;;;47.50;24.58;;;-3.90;99.90;;;;;;5058086;28;20055;-87
2021/12/22 02:36:29;;;;;;;50.45;26.88;;;-3.90;99.90;;;;;;5091207;28;20047;-86
2021/12/22 02:38:56;;;;;;;47.97;24.58;;;-3.90;99.90;;;;;;5090858;28;20048;-86
2021/12/22 02:41:25;;;;;;;48.67;25.20;;;-3.00;99.90;;;;;;5091427;28;20044;-85
2021/12/22 02:43:54;;;;;;;49.53;24.23;;;-4.00;99.90;;;;;;5074124;28;20127;-85
2021/12/22 02:46:21;;;;;;;45.47;23.50;;;-4.00;99.90;;;;;;5074991;28;20097;-86
2021/12/22 02:48:47;;;;;;;42.58;24.15;;;-4.00;99.90;;;;;;5073819;28;20131;-85
2021/12/22 02:51:13;;;;;;;51.75;25.70;;;-4.00;99.90;;;;;;5074783;28;20119;-86
2021/12/22 02:53:43;;;;;;;50.33;24.30;;;-4.00;99.90;;;;;;5092392;28;20056;-86
2021/12/22 02:59:00;;;;;;;46.88;24.40;;;-4.10;99.90;;;;;;5094083;28;20040;-85
2021/12/22 03:04:03;;;;;;;47.63;24.25;;;-4.10;99.90;;;;;;5090583;28;20094;-85
2021/12/22 03:08:55;;;;;;;45.50;23.85;;;-4.10;99.90;;;;;;5073387;28;20499;-85
2021/12/22 03:11:21;;;;;;;47.63;25.48;;;-3.30;99.90;;;;;;5073627;28;20147;-85
2021/12/22 03:13:46;;;;;;;43.67;22.90;;;-4.10;99.90;;;;;;5090785;28;20484;-85
2021/12/22 03:16:12;;;;;;;42.03;23.63;;;-2.90;99.90;;;;;;5090353;28;20048;-84
2021/12/22 03:18:39;;;;;;;46.03;25.02;;;-4.20;99.90;;;;;;5090818;28;20484;-84
2021/12/22 03:23:57;;;;;;;44.75;24.20;;;-4.20;99.90;;;;;;5061227;28;20059;-85
2021/12/22 03:26:24;;;;;;;56.30;25.75;;;-4.30;99.90;;;;;;5090453;28;20052;-85
2021/12/22 03:28:50;;;;;;;51.38;24.75;;;-4.30;99.90;;;;;;5072891;28;20393;-84
2021/12/22 03:31:15;;;;;;;56.47;25.92;;;-4.20;99.90;;;;;;5073769;28;20131;-85
2021/12/22 03:33:42;;;;;;;45.65;25.30;;;-4.20;99.90;;;;;;5091548;28;20139;-85
2021/12/22 03:36:08;;;;;;;49.97;25.75;;;-4.20;99.90;;;;;;5090113;28;20142;-85
2021/12/22 03:38:35;;;;;;;51.45;25.10;;;-4.20;99.90;;;;;;5073266;28;20127;-85
2021/12/22 03:41:00;;;;;;;53.35;25.35;;;-4.20;99.90;;;;;;5089493;28;20097;-85
2021/12/22 03:43:26;;;;;;;54.05;26.45;;;-4.10;99.90;;;;;;5073394;28;20476;-85
2021/12/22 03:45:52;;;;;;;52.65;25.58;;;-4.20;99.90;;;;;;5072764;28;20100;-85
2021/12/22 03:48:18;;;;;;;44.65;24.42;;;-4.20;99.90;;;;;;5073064;28;20040;-85
2021/12/22 03:50:44;;;;;;;46.72;24.15;;;-4.30;99.90;;;;;;5089727;28;20071;-85
2021/12/22 03:53:10;;;;;;;47.85;23.85;;;-4.30;99.90;;;;;;5089517;28;20039;-86
2021/12/22 03:55:36;;;;;;;47.95;24.50;;;-4.30;99.90;;;;;;5073237;28;20044;-85
2021/12/22 03:58:01;;;;;;;50.53;25.80;;;-4.40;99.90;;;;;;5089392;28;20059;-85
2021/12/22 04:00:27;;;;;;;52.30;25.98;;;-4.30;99.90;;;;;;5090384;28;20166;-85
2021/12/22 04:02:53;;;;;;;48.05;23.60;;;-4.20;99.90;;;;;;5073387;28;20381;-85
2021/12/22 04:05:19;;;;;;;43.53;23.63;;;-3.60;99.90;;;;;;5072868;28;20052;-84
2021/12/22 04:07:45;;;;;;;50.50;23.85;;;-4.30;99.90;;;;;;5089784;28;20044;-85
2021/12/22 04:10:21;;;;;;;51.70;23.90;;;-4.30;99.90;;;;;;5072691;28;20044;-85
2021/12/22 04:12:48;;;;;;;47.30;24.17;;;-4.30;99.90;;;;;;5074489;28;20044;-85
2021/12/22 04:15:13;;;;;;;42.53;23.00;;;-4.40;99.90;;;;;;5072575;28;20062;-84
2021/12/22 04:17:39;;;;;;;44.78;25.25;;;-4.40;99.90;;;;;;5090113;28;20052;-84
2021/12/22 04:20:05;;;;;;;43.80;24.05;;;-4.40;99.90;;;;;;5088924;28;20040;-85
2021/12/22 04:22:31;;;;;;;45.10;23.17;;;-4.40;99.90;;;;;;5073330;28;20048;-85
2021/12/22 04:24:57;;;;;;;45.72;23.27;;;-4.50;99.90;;;;;;5093377;28;20051;-85
2021/12/22 04:27:22;;;;;;;43.97;22.73;;;-4.40;99.90;;;;;;5094708;28;20040;-85
2021/12/22 04:29:48;;;;;;;44.35;23.70;;;-4.40;99.90;;;;;;5093509;28;20063;-85
2021/12/22 04:32:13;;;;;;;44.70;23.38;;;-4.40;99.90;;;;;;5076426;28;20052;-84
2021/12/22 04:34:39;;;;;;;44.40;22.80;;;-4.40;99.90;;;;;;5076751;28;20052;-85
2021/12/22 04:37:05;;;;;;;43.95;23.17;;;-4.50;99.90;;;;;;5075980;28;20086;-85
2021/12/22 04:39:32;;;;;;;46.22;22.88;;;-4.40;99.90;;;;;;5076808;28;20062;-85
2021/12/22 04:41:59;;;;;;;42.88;22.58;;;-4.40;99.90;;;;;;5076628;28;20052;-84
2021/12/22 04:44:25;;;;;;;42.58;22.30;;;-4.30;99.90;;;;;;5076304;28;20048;-84
2021/12/22 04:46:50;;;;;;;40.85;21.52;;;-4.40;99.90;;;;;;5076338;28;20047;-85
2021/12/22 04:49:16;;;;;;;40.97;23.17;;;-4.40;99.90;;;;;;5093755;28;20065;-85
2021/12/22 04:51:49;;;;;;;37.72;22.50;;;-4.10;99.90;;;;;;5093371;28;20560;-85
2021/12/22 04:54:42;;;;;;;41.22;22.38;;;-4.40;99.90;;;;;;5077307;28;20097;-84
2021/12/22 04:57:03;;;;;;;40.88;22.73;;;-4.40;99.90;;;;;;5077979;28;20044;-84
2021/12/22 04:59:29;;;;;;;46.33;22.88;;;-4.40;99.90;;;;;;5093499;28;20115;-85
2021/12/22 05:01:56;;;;;;;42.92;23.55;;;-3.20;99.90;;;;;;5093652;28;20485;-85
2021/12/22 05:04:21;;;;;;;43.42;22.60;;;-4.40;99.90;;;;;;5096251;28;20181;-85
2021/12/22 05:06:47;;;;;;;42.25;22.60;;;-3.90;99.90;;;;;;5092448;28;20043;-84
2021/12/22 05:09:13;;;;;;;45.20;23.10;;;-4.30;99.90;;;;;;5105498;28;20496;-85
2021/12/22 05:11:40;;;;;;;42.65;23.20;;;-2.80;99.90;;;;;;5092944;28;20089;-85
2021/12/22 05:14:08;;;;;;;42.42;22.60;;;-4.40;99.90;;;;;;5075572;28;20044;-85
2021/12/22 05:16:33;;;;;;;44.95;22.60;;;-4.40;99.90;;;;;;5094087;28;20138;-83
2021/12/22 05:19:11;;;;;;;44.40;23.20;;;-4.40;99.90;;;;;;5092900;28;20138;-85
2021/12/22 05:21:37;;;;;;;46.67;22.65;;;-4.40;99.90;;;;;;5092733;28;20048;-85
2021/12/22 05:24:03;;;;;;;42.72;23.45;;;-4.40;99.90;;;;;;5092308;28;20093;-85
2021/12/22 05:26:29;;;;;;;44.08;23.15;;;-3.30;99.90;;;;;;5092411;28;20048;-85
2021/12/22 05:28:55;;;;;;;41.80;21.77;;;-4.40;99.90;;;;;;5074956;28;20062;-85
2021/12/22 05:31:22;;;;;;;42.15;23.13;;;-4.50;99.90;;;;;;5091603;28;20059;-84
2021/12/22 05:33:47;;;;;;;43.42;22.67;;;-4.50;99.90;;;;;;5092388;28;20110;-85
2021/12/22 05:36:13;;;;;;;40.60;21.92;;;-4.50;99.90;;;;;;5091951;28;20100;-85
2021/12/22 05:38:39;;;;;;;45.97;22.52;;;-4.40;99.90;;;;;;5075576;28;20044;-85
2021/12/22 05:41:04;;;;;;;40.78;21.58;;;-4.40;99.90;;;;;;5075575;28;20052;-85
2021/12/22 05:43:30;;;;;;;42.47;22.48;;;-4.40;99.90;;;;;;5076688;28;20335;-84
2021/12/22 05:45:56;;;;;;;41.95;22.25;;;-4.40;99.90;;;;;;5075799;28;20051;-85
2021/12/22 05:48:22;;;;;;;45.13;23.98;;;-4.50;99.90;;;;;;5075195;28;20044;-84
2021/12/22 05:50:51;;;;;;;43.55;23.05;;;-4.50;99.90;;;;;;5092677;28;20051;-85
2021/12/22 05:53:17;;;;;;;43.72;21.63;;;-4.50;99.90;;;;;;5091821;28;20048;-86
2021/12/22 05:55:42;;;;;;;44.80;22.15;;;-4.50;99.90;;;;;;5092492;28;20051;-85
2021/12/22 05:58:08;;;;;;;45.08;22.20;;;-4.40;99.90;;;;;;5075540;28;20040;-85
2021/12/22 06:00:34;;;;;;;45.58;22.65;;;-4.40;99.90;;;;;;5058482;28;20187;-85
2021/12/22 06:02:59;;;;;;;43.72;22.75;;;-4.40;99.90;;;;;;5058724;28;20390;-86
2021/12/22 06:05:25;;;;;;;41.92;21.02;;;-4.40;99.90;;;;;;5074514;28;20121;-86
2021/12/22 06:07:51;;;;;;;44.67;23.83;;;-4.50;99.90;;;;;;5075070;28;20521;-86
2021/12/22 06:10:16;;;;;;;42.80;23.65;;;-4.50;99.90;;;;;;5092562;28;20066;-86
2021/12/22 06:12:42;;;;;;;43.42;22.17;;;-4.50;99.90;;;;;;5075170;28;20087;-85
2021/12/22 06:15:08;;;;;;;42.42;22.27;;;-4.50;99.90;;;;;;5091919;28;20097;-86
2021/12/22 06:17:34;;;;;;;44.53;23.38;;;-4.50;99.90;;;;;;5091272;28;20105;-86
2021/12/22 06:19:59;;;;;;;43.08;22.83;;;-4.50;99.90;;;;;;5091908;28;20426;-86
2021/12/22 06:22:27;;;;;;;42.38;23.05;;;-3.00;99.90;;;;;;5074507;28;20052;-86
2021/12/22 06:24:52;;;;;;;45.35;22.63;;;-4.50;99.90;;;;;;5074975;28;20052;-85
2021/12/22 06:27:18;;;;;;;48.95;22.45;;;-4.50;99.90;;;;;;5074468;28;20109;-85
2021/12/22 06:29:44;;;;;;;45.58;23.27;;;-4.50;99.90;;;;;;5074236;28;20055;-86
2021/12/22 06:32:09;;;;;;;49.65;24.20;;;-4.50;99.90;;;;;;5091514;28;20091;-85
2021/12/22 06:34:35;;;;;;;43.70;22.70;;;-4.50;99.90;;;;;;5091363;28;20503;-88
2021/12/22 06:37:00;;;;;;;43.92;22.73;;;-4.50;99.90;;;;;;5074898;28;20043;-88
2021/12/22 06:39:26;;;;;;;44.35;22.85;;;-4.50;99.90;;;;;;5091824;28;20071;-87
2021/12/22 06:41:52;;;;;;;42.28;21.83;;;-3.80;99.90;;;;;;5075373;28;20101;-88
2021/12/22 06:44:18;;;;;;;46.83;23.20;;;-4.60;99.90;;;;;;5091566;28;20063;-88
2021/12/22 06:46:43;;;;;;;49.53;22.67;;;-4.20;99.90;;;;;;5075392;28;20040;-88
2021/12/22 06:49:10;;;;;;;45.33;22.10;;;-4.60;99.90;;;;;;5092184;28;20051;-88
2021/12/22 06:51:36;;;;;;;44.13;22.45;;;-4.60;99.90;;;;;;5074848;28;20051;-88
2021/12/22 06:54:01;;;;;;;45.22;22.13;;;-4.50;99.90;;;;;;5075424;28;20043;-88
2021/12/22 06:56:27;;;;;;;38.35;21.13;;;-4.60;99.90;;;;;;5091305;28;20541;-88
2021/12/22 06:58:52;;;;;;;46.75;23.88;;;-4.60;99.90;;;;;;5091885;28;20081;-88
2021/12/22 07:01:20;;;;;;;40.60;20.80;;;-4.60;99.90;;;;;;5091574;28;20069;-88
2021/12/22 07:03:46;;;;;;;47.17;22.42;;;-4.60;99.90;;;;;;5075428;28;20127;-88
2021/12/22 07:06:12;;;;;;;46.45;22.30;;;-4.60;99.90;;;;;;5074813;28;20128;-87
2021/12/22 07:08:37;;;;;;;43.88;21.85;;;-4.60;99.90;;;;;;5096529;28;20343;-87
2021/12/22 07:11:03;;;;;;;44.45;22.05;;;-4.60;99.90;;;;;;5108207;28;20050;-88
2021/12/22 07:13:30;;;;;;;42.97;22.10;;;-4.60;99.90;;;;;;5087251;28;20075;-88
2021/12/22 07:15:55;;;;;;;48.78;22.05;;;-4.60;99.90;;;;;;5074693;28;20047;-85
2021/12/22 07:18:21;;;;;;;41.88;20.67;;;-4.60;99.90;;;;;;5057709;28;20044;-85
2021/12/22 07:20:47;;;;;;;47.53;22.05;;;-4.60;99.90;;;;;;5091298;28;20044;-85
2021/12/22 07:23:12;;;;;;;42.42;21.75;;;-4.60;99.90;;;;;;5091057;28;20036;-85
2021/12/22 07:25:38;;;;;;;43.78;21.75;;;-4.60;99.90;;;;;;5057035;28;20249;-84
2021/12/22 07:28:04;;;;;;;50.20;22.83;;;-4.60;99.90;;;;;;5090817;28;20047;-85
2021/12/22 07:30:29;;;;;;;41.88;21.67;;;-4.60;99.90;;;;;;5072979;28;20059;-85
2021/12/22 07:32:55;;;;;;;45.67;23.00;;;-4.60;99.90;;;;;;5073599;28;20126;-85
2021/12/22 07:35:34;;;;;;;44.60;23.10;;;-4.60;99.90;;;;;;5073751;28;20359;-85
2021/12/22 07:38:24;;;;;;;47.53;21.95;;;-4.60;99.90;;;;;;5057231;28;20051;-84
2021/12/22 07:40:53;;;;;;;48.03;22.73;;;-4.50;99.90;;;;;;5073678;28;20051;-85
2021/12/22 07:43:19;;;;;;;48.58;22.55;;;-4.50;99.90;;;;;;5073937;28;20510;-85
2021/12/22 07:45:45;;;;;;;47.85;22.52;;;-4.50;99.90;;;;;;5073551;28;20051;-85
2021/12/22 07:48:11;;;;;;;47.80;23.92;;;-4.10;99.90;;;;;;5090698;28;20051;-85
2021/12/22 07:50:36;;;;;;;47.67;22.55;;;-4.40;99.90;;;;;;5090014;28;20051;-85
2021/12/22 07:53:02;;;;;;;45.53;22.52;;;-4.40;99.90;;;;;;5090413;28;20108;-85
2021/12/22 07:55:28;;;;;;;49.67;24.10;;;-4.30;99.90;;;;;;5090105;28;20058;-85
2021/12/22 07:57:53;;;;;;;47.83;23.63;;;-4.30;99.90;;;;;;5090820;28;20364;-85
2021/12/22 08:00:19;;;;;;;49.13;23.70;;;-4.30;99.90;;;;;;5090247;28;20055;-85
2021/12/22 08:02:45;;;;;;;51.45;24.85;;;-4.20;99.90;;;;;;5073212;28;20044;-84
2021/12/22 08:05:10;;;;;;;45.83;22.42;;;-4.30;99.90;;;;;;5090585;28;20470;-85
2021/12/22 08:07:36;;;;;;;42.28;22.67;;;-4.20;99.90;;;;;;5073242;28;20097;-85
2021/12/22 08:10:03;;;;;;;47.50;22.25;;;-4.20;99.90;;;;;;5093233;28;20048;-86
2021/12/22 08:12:29;;;;;;;48.22;22.83;;;-4.10;99.90;;;;;;5085132;28;20059;-85
2021/12/22 08:14:55;;;;;;;43.10;22.23;;;-4.10;99.90;;;;;;5097210;28;20056;-85
2021/12/22 08:17:21;;;;;;;44.15;22.17;;;-2.60;99.90;;;;;;5073464;28;20109;-86
2021/12/22 08:19:47;;;;;;;49.72;22.25;;;-3.30;99.90;;;;;;5072446;28;20435;-85
2021/12/22 08:22:12;;;;;;;44.35;23.95;;;-2.90;99.90;;;;;;5073035;28;20472;-86
2021/12/22 08:24:38;;;;;;;48.85;24.55;;;-3.90;99.90;;;;;;5072701;28;20056;-85
2021/12/22 08:27:04;;;;;;;44.88;22.70;;;-3.80;99.90;;;;;;5089713;28;20400;-85
2021/12/22 08:29:30;;;;;;;48.70;23.55;;;-3.80;99.90;;;;;;5088981;28;20411;-85
2021/12/22 08:31:56;;;;;;;42.88;23.33;;;-3.70;99.90;;;;;;5072843;28;20483;-85
2021/12/22 08:34:26;;;;;;;43.72;23.90;;;-3.60;99.90;;;;;;5090550;28;20048;-86
2021/12/22 08:39:36;;;;;;;46.53;21.02;;;-3.30;99.90;;;;;;5074993;28;20140;-87
2021/12/22 08:42:02;;;;;;;43.13;22.73;;;-2.10;99.90;;;;;;5072844;28;20102;-85
2021/12/22 08:44:27;;;;;;;44.10;22.80;;;-3.00;99.90;;;;;;5072857;28;20052;-85
2021/12/22 08:46:55;;;;;;;46.67;22.63;;;-2.90;99.90;;;;;;5105719;28;20074;-85
2021/12/22 08:49:20;;;;;;;41.25;21.50;;;-2.90;99.90;;;;;;5073039;28;20056;-86
2021/12/22 08:51:47;;;;;;;41.05;21.88;;;-2.70;99.90;;;;;;5072610;28;20056;-86
2021/12/22 08:54:13;;;;;;;41.53;22.17;;;-2.20;99.90;;;;;;5089652;28;20043;-86
2021/12/22 08:56:38;;;;;;;39.15;20.73;;;-2.50;99.90;;;;;;5073015;28;20448;-85
2021/12/22 08:59:05;;;;;;;36.05;19.60;;;-1.20;99.90;;;;;;5090017;28;20101;-86
2021/12/22 09:01:31;;;;;;;38.45;20.63;;;-2.20;99.90;;;;;;5072900;28;20056;-85
2021/12/22 09:03:56;;;;;;;37.65;20.25;;;-2.10;99.90;;;;;;5089224;28;20503;-86
2021/12/22 09:06:22;;;;;;;40.47;20.63;;;-2.00;99.90;;;;;;5073300;28;20052;-85
2021/12/22 09:08:48;;;;;;;32.45;18.98;;;-1.90;99.90;;;;;;5072895;28;20048;-86
2021/12/22 09:11:14;;;;;;;36.80;19.58;;;-1.80;99.90;;;;;;5076600;28;20052;-86
2021/12/22 09:13:39;;;;;;;35.55;19.38;;;-1.80;99.90;;;;;;5109992;28;20139;-85
2021/12/22 09:16:06;;;;;;;31.55;19.00;;;-1.70;99.90;;;;;;5076489;28;20115;-84
2021/12/22 09:18:32;;;;;;;40.63;19.58;;;-1.90;99.90;;;;;;5076321;28;20056;-86
2021/12/22 09:20:58;;;;;;;34.53;19.27;;;-1.90;99.90;;;;;;5110291;28;20310;-84
2021/12/22 09:23:23;;;;;;;36.10;19.58;;;-1.90;99.90;;;;;;5109984;28;20058;-84
2021/12/22 09:25:49;;;;;;;33.00;19.10;;;-1.80;99.90;;;;;;5104755;28;20098;-84
2021/12/22 09:28:15;;;;;;;34.30;18.92;;;-1.90;99.90;;;;;;5113802;28;20040;-84
2021/12/22 09:30:41;;;;;;;38.78;19.90;;;-1.90;99.90;;;;;;5111456;28;20503;-84
2021/12/22 09:33:08;;;;;;;32.00;18.83;;;-1.90;99.90;;;;;;5095879;28;20103;-85
2021/12/22 09:35:33;;;;;;;31.95;19.25;;;-1.90;99.90;;;;;;5096072;28;20047;-85
2021/12/22 09:37:59;;;;;;;35.35;19.35;;;-2.00;99.90;;;;;;5112238;28;20059;-84
2021/12/22 09:40:25;;;;;;;39.55;20.83;;;-1.40;99.90;;;;;;5112703;28;20082;-84
2021/12/22 09:42:50;;;;;;;36.67;19.75;;;-2.00;99.90;;;;;;5095207;28;20059;-84
2021/12/22 09:45:18;;;;;;;37.50;19.65;;;-1.80;99.90;;;;;;5095511;28;20055;-85
2021/12/22 09:48:15;;;;;;;31.80;19.90;;;-1.30;99.90;;;;;;5094564;28;20795;-84
2021/12/22 09:53:04;;;;;;;35.88;19.17;;;-1.50;99.90;;;;;;5078339;28;20058;-85
2021/12/22 09:55:34;;;;;;;30.13;18.13;;;-1.50;99.90;;;;;;5112175;28;20052;-84
2021/12/22 09:58:03;;;;;;;36.00;19.20;;;-1.40;99.90;;;;;;5110896;28;20139;-84
2021/12/22 10:00:29;;;;;;;34.90;19.05;;;-0.40;99.90;;;;;;5111916;28;20054;-83
2021/12/22 10:02:55;;;;;;;32.88;18.20;;;-1.20;99.90;;;;;;5111464;28;20051;-84
2021/12/22 10:05:21;;;;;;;32.08;18.77;;;-1.10;99.90;;;;;;5112441;28;20054;-84
2021/12/22 10:08:13;;;;;;;30.98;18.30;;;-1.10;99.90;;;;;;5095253;28;20035;-83
2021/12/22 10:10:46;;;;;;;30.75;17.77;;;-0.10;99.90;;;;;;5079559;28;20067;-83
2021/12/22 10:13:20;;;;;;;28.65;18.02;;;-1.00;99.90;;;;;;5112941;28;20055;-83
2021/12/22 10:15:46;;;;;;;32.53;17.73;;;-1.00;99.90;;;;;;5083445;28;20062;-83
2021/12/22 10:18:17;;;;;;;35.65;18.25;;;-1.00;99.90;;;;;;5104153;28;20043;-83
2021/12/22 10:20:43;;;;;;;33.28;17.75;;;-0.80;99.90;;;;;;5095696;28;20104;-84
2021/12/22 10:23:24;;;;;;;30.52;18.40;;;-0.80;99.90;;;;;;5094804;28;20126;-83
2021/12/22 10:25:54;;;;;;;30.88;17.98;;;-1.00;99.90;;;;;;5095329;28;20711;-83
2021/12/22 10:28:20;;;;;;;26.52;16.95;;;-0.90;99.90;;;;;;5111469;28;20380;-83
2021/12/22 10:30:47;;;;;;;27.55;17.30;;;-0.90;99.90;;;;;;5094123;28;20124;-83
2021/12/22 10:33:16;;;;;;;31.50;17.88;;;-0.90;99.90;;;;;;5111058;28;20151;-84
2021/12/22 10:36:09;;;;;;;31.42;18.55;;;-0.90;99.90;;;;;;5111424;28;20058;-85
2021/12/22 10:38:35;;;;;;;31.77;18.45;;;-0.80;99.90;;;;;;5104960;28;20092;-85
2021/12/22 10:41:05;;;;;;;31.42;17.88;;;-0.70;99.90;;;;;;5110992;28;20047;-83
2021/12/22 10:43:33;;;;;;;29.02;16.95;;;-0.70;99.90;;;;;;5078703;28;20509;-83
2021/12/22 10:46:00;;;;;;;26.70;16.77;;;-0.70;99.90;;;;;;5111336;28;20047;-83
2021/12/22 10:51:20;;;;;;;28.15;17.08;;;-0.50;99.90;;;;;;5097057;28;20067;-83
2021/12/22 10:53:49;;;;;;;26.23;16.23;;;0.00;99.90;;;;;;5078385;28;20055;-82
2021/12/22 10:56:27;;;;;;;28.10;17.50;;;-0.40;99.90;;;;;;5077187;28;20047;-82
2021/12/22 10:59:09;;;;;;;25.58;16.20;;;-0.40;99.90;;;;;;5077460;28;20052;-84
2021/12/22 11:01:36;;;;;;;24.33;15.52;;;-0.40;99.90;;;;;;5110948;28;20046;-83
2021/12/22 11:04:04;;;;;;;23.38;15.60;;;0.20;99.90;;;;;;5093888;28;20047;-83
2021/12/22 11:06:32;;;;;;;27.52;16.00;;;-0.50;99.90;;;;;;5077878;28;20087;-84
2021/12/22 11:09:03;;;;;;;25.45;15.48;;;-0.40;99.90;;;;;;5093702;28;20044;-83
2021/12/22 11:11:36;;;;;;;25.75;16.40;;;-0.40;99.90;;;;;;5111388;28;20054;-84
2021/12/22 11:14:16;;;;;;;26.77;16.10;;;-0.40;99.90;;;;;;5093633;28;20092;-83
2021/12/22 11:17:09;;;;;;;25.52;14.80;;;-0.50;99.90;;;;;;5078530;28;20050;-84
2021/12/22 11:19:54;;;;;;;24.02;15.27;;;-0.50;99.90;;;;;;5091408;28;20503;-82
2021/12/22 11:22:25;;;;;;;22.05;14.82;;;-0.40;99.90;;;;;;5110332;28;20048;-83
2021/12/22 11:24:54;;;;;;;26.70;15.95;;;-0.50;99.90;;;;;;5078589;28;20055;-82
2021/12/22 11:27:25;;;;;;;26.45;15.50;;;0.70;99.90;;;;;;5109951;28;20079;-82
2021/12/22 11:29:55;;;;;;;27.77;16.25;;;-0.40;99.90;;;;;;5093034;28;20491;-82
2021/12/22 11:32:23;;;;;;;25.63;15.57;;;-0.30;99.90;;;;;;5109447;28;20079;-82
2021/12/22 11:34:51;;;;;;;24.48;15.15;;;0.90;99.90;;;;;;5093299;28;20713;-82
2021/12/22 11:37:17;;;;;;;25.17;15.00;;;0.40;99.90;;;;;;5092518;28;20316;-84
2021/12/22 11:39:43;;;;;;;25.52;15.40;;;-0.30;99.90;;;;;;5110631;28;20051;-83
2021/12/22 11:42:12;;;;;;;24.65;15.88;;;0.60;99.90;;;;;;5076330;28;20056;-83
2021/12/22 11:44:40;;;;;;;26.52;16.08;;;-0.20;99.90;;;;;;5094023;28;20055;-83
2021/12/22 11:47:10;;;;;;;23.65;15.13;;;0.00;99.90;;;;;;5093111;28;20051;-84
2021/12/22 11:49:49;;;;;;;25.23;16.13;;;-0.10;99.90;;;;;;5109534;28;20062;-84
2021/12/22 11:52:36;;;;;;;25.80;15.68;;;0.30;99.90;;;;;;5092778;28;20052;-84
2021/12/22 11:55:16;;;;;;;26.60;15.95;;;-0.10;99.90;;;;;;5110763;28;20090;-84
2021/12/22 11:57:43;;;;;;;27.35;15.82;;;0.00;99.90;;;;;;5093344;28;20090;-83
2021/12/22 12:00:29;;;;;;;19.60;11.77;;;0.50;99.90;;;;;;5092510;28;20051;-84
2021/12/22 12:02:57;;;;;;;27.52;14.88;;;0.10;99.90;;;;;;5093426;28;20084;-84
2021/12/22 12:05:31;;;;;;;23.13;14.88;;;0.00;99.90;;;;;;5109605;28;20187;-82
2021/12/22 12:08:07;;;;;;;24.17;15.27;;;0.10;99.90;;;;;;5111388;28;20035;-84
2021/12/22 12:10:39;;;;;;;23.90;14.80;;;1.00;99.90;;;;;;5078292;28;20084;-84
2021/12/22 12:13:34;;;;;;;24.30;14.77;;;0.00;99.90;;;;;;5092937;28;20051;-83
2021/12/22 12:22:07;;;;;;;26.15;15.95;;;-0.10;99.90;;;;;;5101322;28;20069;-85
2021/12/22 12:24:43;;;;;;;24.02;15.52;;;0.00;99.90;;;;;;5109954;28;20047;-84
2021/12/22 12:27:35;;;;;;;25.90;14.98;;;-0.10;99.90;;;;;;5110592;28;20058;-83
2021/12/22 12:30:03;;;;;;;28.35;15.75;;;-0.10;99.90;;;;;;5109762;28;20052;-84
2021/12/22 12:32:40;;;;;;;24.65;15.50;;;-0.10;99.90;;;;;;5110658;28;20091;-84
2021/12/22 12:35:18;;;;;;;24.77;15.30;;;-0.10;99.90;;;;;;5110921;28;20051;-83
2021/12/22 12:38:06;;;;;;;26.27;15.55;;;-0.10;99.90;;;;;;5109899;28;20368;-83
2021/12/22 12:40:57;;;;;;;26.02;14.85;;;-0.10;99.90;;;;;;5109429;28;20051;-85
2021/12/22 12:43:44;;;;;;;24.45;15.23;;;0.00;99.90;;;;;;5110490;28;20384;-84
2021/12/22 12:46:19;;;;;;;26.85;14.93;;;0.00;99.90;;;;;;5114659;28;20051;-82
2021/12/22 12:49:08;;;;;;;24.20;14.85;;;0.00;99.90;;;;;;5113756;28;20047;-84
2021/12/22 12:51:40;;;;;;;25.02;14.90;;;0.00;99.90;;;;;;5105023;28;20745;-84
2021/12/22 12:54:07;;;;;;;25.83;14.93;;;0.00;99.90;;;;;;5096949;28;20082;-83
2021/12/22 12:56:34;;;;;;;26.10;15.90;;;0.00;99.90;;;;;;5095845;28;20063;-83
2021/12/22 12:59:05;;;;;;;24.50;13.85;;;0.50;99.90;;;;;;5113506;28;20066;-84
2021/12/22 13:01:45;;;;;;;24.58;15.70;;;0.00;99.90;;;;;;5096180;28;20665;-84
2021/12/22 13:04:28;;;;;;;26.65;15.65;;;0.00;99.90;;;;;;5114190;28;20082;-81